Hlavní strana
METAR-TAF:

METAR-TAF

Letiště :

Haugesund, Norsko

zeměpisná šířka: 59-21N, zeměpisná délka: 005-13E, výška: 2 m

Aktuální stav počasí

Zpráva byla vytvořena před 36 minutami, v 17:50 UTC
Severovýchodní vítr 7 kt
Teplota 3°C
Vlhkost vzduchu 52%
Tlak 1022 hPa
Viditelnost 10 km a více
Žádná oblačnost pod 1500 m, nevyskytují se cumulonimby.

METAR: ENHD 071750Z 04007KT CAVOK 03/M06 Q1022

Čas: 19:26 (18:26 UTC)

Předpověď počasí

Zpráva byla vytvořena před 1 hodinou a 26 minutami, v 17:00 UTC
Předpověď platná od 07 v 18 UTC do 07 v 22 UTC
Severoseverovýchodní vítr 10 kt
Viditelnost 10 km a více
Skoro jasno ve výšce 3000 ft
Polojasno ve výšce 10000 ft
Změna
od 07 v 18 UTC do 07 v 20 UTC
vítr z různých směrů 5 kt

TAF: ENHD 071700Z 0718/0722 02010KT 9999 FEW030 SCT100 BECMG 0718/0720 VRB05KT

Stav a předpovědi počasí z více než 4 000 letišť (zprávy METAR a TAF).

Červené a žluté tečky na mapě představují dostupné meteorologické stanice.

Když kurzor umístíte na tečku, zobrazí se název stanice.

Pak kliknutím zobrazíte stav a předpověď počasí.

Chcete-li změnit mapu, kliknutím na zelené tlačítko se znaménkem +mapu přiblížíte, kliknutím na zelené tlačítko se znaménkem – mapu oddálíte a kliknutím na zelené šipky přejdete na sousední mapy.


METAR-TAF: